sim
Sign-in with your pilot id or email,
or register
Callsign
Passwort

Schedule Details

Flight Number: DLH2703 (1)
Departure: Dusseldorf International Airport (EDDL) at 19:10
Arrival: Munich Airport (EDDM) at 20:20
Route: Lufthansa Passenger Schedule. Enter filed route here before submitting Pirep.

Weather Information
Getting current METAR information for EDDL 250950Z 19014KT 150V220 9999 FEW030 13/06 Q0996 TEMPO 20015G25KT
Getting current METAR information for EDDM 250950Z 27007KT 230V290 9999 -RA FEW011 SCT020 10/08 Q1003 NOSIG

Schedule Frequency

Route Map